Time;durP1;ratioP1;P1;durP2;ratioP2;P2;SDS_P1;SDS_P2;PMS_P1;PMS_P2;Temp;Humidity;BMP_temperature;BMP_pressure;BME280_temperature;BME280_humidity;BME280_pressure;Samples;Min_cycle;Max_cycle;Signal;HPM_P1;HPM_P2
2022/02/20 00:00:14;;;;;;;8.65;2.90;;;8.40;99.90;;;;;;2102593;28;20020;-72
2022/02/20 00:01:15;;;;;;;8.30;3.42;;;8.40;99.90;;;;;;2102568;28;20564;-72
2022/02/20 00:02:16;;;;;;;10.88;4.90;;;8.40;99.90;;;;;;2094377;28;20020;-73
2022/02/20 00:03:17;;;;;;;12.48;5.30;;;8.40;99.90;;;;;;2102494;28;20028;-73
2022/02/20 00:04:18;;;;;;;20.48;8.50;;;8.40;99.90;;;;;;2102894;28;20119;-73
2022/02/20 00:05:19;;;;;;;18.98;8.02;;;8.40;99.90;;;;;;2100514;28;20051;-73
2022/02/20 00:06:20;;;;;;;17.75;8.57;;;8.40;99.90;;;;;;2104133;28;20028;-73
2022/02/20 00:07:21;;;;;;;19.15;8.43;;;8.40;99.90;;;;;;2104556;28;20050;-72
2022/02/20 00:08:22;;;;;;;19.30;7.65;;;8.50;99.90;;;;;;2104868;28;20020;-73
2022/02/20 00:09:23;;;;;;;17.85;6.57;;;8.50;99.90;;;;;;2102093;28;20100;-73
2022/02/20 00:10:23;;;;;;;15.48;6.10;;;8.50;99.90;;;;;;2103035;28;20050;-72
2022/02/20 00:11:24;;;;;;;14.95;5.45;;;8.50;99.90;;;;;;2104701;28;20372;-72
2022/02/20 00:12:25;;;;;;;14.18;5.82;;;8.50;99.90;;;;;;2104451;28;20090;-73
2022/02/20 00:13:25;;;;;;;11.75;5.03;;;8.50;99.90;;;;;;2103170;28;20109;-73
2022/02/20 00:14:26;;;;;;;15.20;4.80;;;8.50;99.90;;;;;;2103773;28;20027;-73
2022/02/20 00:15:27;;;;;;;10.98;4.45;;;8.50;99.90;;;;;;2103954;28;20020;-72
2022/02/20 00:16:27;;;;;;;12.57;3.53;;;8.50;99.90;;;;;;2103735;28;20365;-73
2022/02/20 00:17:28;;;;;;;9.88;3.85;;;8.50;99.90;;;;;;2104944;28;20091;-72
2022/02/20 00:18:28;;;;;;;11.63;3.95;;;8.50;99.90;;;;;;2101832;28;20020;-73
2022/02/20 00:19:29;;;;;;;10.95;3.80;;;8.50;99.90;;;;;;2104216;28;20024;-73
2022/02/20 00:20:30;;;;;;;8.05;3.47;;;8.50;99.90;;;;;;2103961;28;20658;-72
2022/02/20 00:21:30;;;;;;;11.38;4.45;;;8.40;99.90;;;;;;2103379;28;20051;-72
2022/02/20 00:22:31;;;;;;;9.70;3.75;;;8.40;99.90;;;;;;2102458;28;20050;-73
2022/02/20 00:23:32;;;;;;;10.85;3.80;;;8.40;99.90;;;;;;2104317;28;20079;-72
2022/02/20 00:24:32;;;;;;;7.60;3.63;;;8.40;99.90;;;;;;2105093;28;20024;-72
2022/02/20 00:25:34;;;;;;;9.48;3.65;;;8.40;99.90;;;;;;2102973;28;20127;-72
2022/02/20 00:26:35;;;;;;;10.40;3.40;;;8.40;99.90;;;;;;2102323;28;20027;-73
2022/02/20 00:27:36;;;;;;;9.07;3.38;;;8.40;99.90;;;;;;2104727;28;20024;-72
2022/02/20 00:28:36;;;;;;;9.00;2.95;;;8.40;99.90;;;;;;2103466;28;20024;-73
2022/02/20 00:29:37;;;;;;;10.05;3.85;;;8.40;99.90;;;;;;2104070;28;20048;-73
2022/02/20 00:30:38;;;;;;;14.30;3.88;;;8.40;99.90;;;;;;2102839;28;20070;-73
2022/02/20 00:31:38;;;;;;;9.23;3.70;;;8.40;99.90;;;;;;2103068;28;20039;-72
2022/02/20 00:32:39;;;;;;;6.88;2.85;;;8.40;99.90;;;;;;2103463;28;20039;-73
2022/02/20 00:33:40;;;;;;;7.35;2.90;;;8.40;99.90;;;;;;2103661;28;20028;-72
2022/02/20 00:34:40;;;;;;;9.23;3.30;;;8.40;99.90;;;;;;2102062;28;20071;-72
2022/02/20 00:35:41;;;;;;;8.75;3.30;;;8.40;99.90;;;;;;2106392;28;20866;-72
2022/02/20 00:36:42;;;;;;;8.65;3.20;;;8.30;99.90;;;;;;2103371;28;20033;-72
2022/02/20 00:37:43;;;;;;;9.60;3.35;;;8.30;99.90;;;;;;2103519;28;20099;-72
2022/02/20 00:38:43;;;;;;;10.25;3.05;;;8.30;99.90;;;;;;2103449;28;20035;-73
2022/02/20 00:39:44;;;;;;;13.13;2.78;;;8.30;99.90;;;;;;2104581;28;20399;-73
2022/02/20 00:40:44;;;;;;;10.98;2.95;;;8.30;99.90;;;;;;2104433;28;20020;-72
2022/02/20 00:41:45;;;;;;;6.60;3.03;;;8.20;99.90;;;;;;2102941;28;20016;-72
2022/02/20 00:42:45;;;;;;;9.60;2.47;;;8.30;99.90;;;;;;2104302;28;20054;-72
2022/02/20 00:43:46;;;;;;;7.20;2.70;;;8.30;99.90;;;;;;2103724;28;20023;-73
2022/02/20 00:44:46;;;;;;;4.22;2.28;;;8.20;99.90;;;;;;2103878;28;20572;-73
2022/02/20 00:45:47;;;;;;;6.68;2.30;;;8.20;99.90;;;;;;2101698;28;20123;-73
2022/02/20 00:46:47;;;;;;;8.85;2.38;;;8.20;99.90;;;;;;2103847;28;20024;-72
2022/02/20 00:47:48;;;;;;;7.97;2.90;;;8.20;99.90;;;;;;2103643;28;20097;-72
2022/02/20 00:48:48;;;;;;;7.72;2.67;;;8.20;99.90;;;;;;2104292;28;20080;-73
2022/02/20 00:49:49;;;;;;;10.05;2.85;;;8.20;99.90;;;;;;2100786;28;20039;-71
2022/02/20 00:50:50;;;;;;;9.20;3.25;;;8.20;99.90;;;;;;2103776;28;20404;-72
2022/02/20 00:51:50;;;;;;;8.88;3.00;;;8.20;99.90;;;;;;2102834;28;20037;-72
2022/02/20 00:52:51;;;;;;;10.43;2.70;;;8.20;99.90;;;;;;2104457;28;20032;-72
2022/02/20 00:53:52;;;;;;;5.80;2.47;;;8.20;99.90;;;;;;2102146;28;20388;-72
2022/02/20 00:54:52;;;;;;;10.30;3.28;;;8.10;99.90;;;;;;2103737;28;20031;-72
2022/02/20 00:55:53;;;;;;;7.65;2.40;;;8.10;99.90;;;;;;2103095;28;20032;-72
2022/02/20 00:56:53;;;;;;;9.65;3.10;;;8.10;99.90;;;;;;2104039;28;20024;-72
2022/02/20 00:57:54;;;;;;;9.80;2.63;;;8.10;99.90;;;;;;2102774;28;20042;-72
2022/02/20 00:58:55;;;;;;;12.95;3.35;;;8.10;99.90;;;;;;2103766;28;20024;-72
2022/02/20 00:59:55;;;;;;;5.97;2.40;;;8.10;99.90;;;;;;2103400;28;20035;-72
2022/02/20 01:00:56;;;;;;;7.22;2.45;;;8.10;99.90;;;;;;2103734;28;20040;-72
2022/02/20 01:01:56;;;;;;;9.25;3.00;;;8.10;99.90;;;;;;2103670;28;20468;-72
2022/02/20 01:02:57;;;;;;;7.60;2.85;;;8.00;99.90;;;;;;2095101;28;20020;-71
2022/02/20 01:03:58;;;;;;;10.23;2.70;;;8.00;99.90;;;;;;2094446;28;20396;-72
2022/02/20 01:04:59;;;;;;;8.88;2.88;;;8.00;99.90;;;;;;2101858;28;20035;-72
2022/02/20 01:05:59;;;;;;;9.30;2.45;;;8.00;99.90;;;;;;2100616;28;20051;-71
2022/02/20 01:07:00;;;;;;;7.97;2.65;;;8.00;99.90;;;;;;2101397;28;20024;-72
2022/02/20 01:08:00;;;;;;;8.20;2.47;;;8.00;99.90;;;;;;2100847;28;20031;-72
2022/02/20 01:09:01;;;;;;;9.27;2.33;;;8.10;99.90;;;;;;2102293;28;20028;-71
2022/02/20 01:10:07;;;;;;;5.10;2.15;;;8.00;99.90;;;;;;2101452;28;20039;-72
2022/02/20 01:11:08;;;;;;;8.77;2.30;;;8.10;99.90;;;;;;2101891;28;20039;-71
2022/02/20 01:12:08;;;;;;;7.95;2.30;;;8.00;99.90;;;;;;2101128;28;20035;-72
2022/02/20 01:13:09;;;;;;;7.28;2.28;;;8.00;99.90;;;;;;2101221;28;20645;-71
2022/02/20 01:14:10;;;;;;;13.15;2.83;;;8.00;99.90;;;;;;2102293;28;20020;-72
2022/02/20 01:15:12;;;;;;;8.95;1.98;;;8.00;99.90;;;;;;2101618;28;20020;-72
2022/02/20 01:16:14;;;;;;;5.85;1.80;;;8.00;99.90;;;;;;2101373;28;20066;-72
2022/02/20 01:17:15;;;;;;;7.05;1.80;;;7.90;99.90;;;;;;2101343;28;20073;-72
2022/02/20 01:18:15;;;;;;;8.32;2.08;;;7.90;99.90;;;;;;2102095;28;20028;-71
2022/02/20 01:19:16;;;;;;;9.90;2.13;;;7.90;99.90;;;;;;2102144;28;20016;-71
2022/02/20 01:20:16;;;;;;;6.28;1.77;;;7.90;99.90;;;;;;2102276;28;20020;-72
2022/02/20 01:21:17;;;;;;;8.65;2.15;;;7.80;99.90;;;;;;2100566;28;20035;-72
2022/02/20 01:22:17;;;;;;;6.07;1.83;;;7.80;99.90;;;;;;2101928;28;20048;-72
2022/02/20 01:23:18;;;;;;;10.68;2.10;;;7.80;99.90;;;;;;2100585;28;20095;-72
2022/02/20 01:24:18;;;;;;;6.45;1.75;;;7.80;99.90;;;;;;2100727;28;20047;-72
2022/02/20 01:25:19;;;;;;;5.63;2.00;;;7.80;99.90;;;;;;2100079;28;21037;-72
2022/02/20 01:26:20;;;;;;;7.28;2.40;;;7.80;99.90;;;;;;2100538;28;20028;-71
2022/02/20 01:27:21;;;;;;;8.90;1.95;;;7.70;99.90;;;;;;2101317;28;20016;-72
2022/02/20 01:28:21;;;;;;;6.05;1.88;;;7.70;99.90;;;;;;2101216;28;20031;-71
2022/02/20 01:29:22;;;;;;;7.30;1.70;;;7.70;99.90;;;;;;2101207;28;20442;-71
2022/02/20 01:30:23;;;;;;;7.25;2.20;;;7.70;99.90;;;;;;2104399;28;20095;-71
2022/02/20 01:31:24;;;;;;;7.70;2.50;;;7.70;99.90;;;;;;2101782;28;20032;-71
2022/02/20 01:32:25;;;;;;;8.52;2.92;;;7.70;99.90;;;;;;2102363;28;20115;-71
2022/02/20 01:33:25;;;;;;;10.75;2.80;;;7.70;99.90;;;;;;2102963;28;20052;-71
2022/02/20 01:34:26;;;;;;;9.98;3.15;;;7.70;99.90;;;;;;2101904;28;20087;-72
2022/02/20 01:35:26;;;;;;;6.80;2.47;;;7.70;99.90;;;;;;2101118;28;20020;-72
2022/02/20 01:36:27;;;;;;;5.82;2.45;;;7.70;99.90;;;;;;2102433;28;20066;-72
2022/02/20 01:37:28;;;;;;;11.30;3.10;;;7.70;99.90;;;;;;2103111;28;20020;-72
2022/02/20 01:38:28;;;;;;;8.38;3.15;;;7.70;99.90;;;;;;2103551;28;20418;-72
2022/02/20 01:39:29;;;;;;;9.30;3.15;;;7.70;99.90;;;;;;2104083;28;20024;-71
2022/02/20 01:40:30;;;;;;;9.98;3.15;;;7.70;99.90;;;;;;2104678;28;20020;-72
2022/02/20 01:41:31;;;;;;;8.65;2.65;;;7.70;99.90;;;;;;2104742;28;20039;-72
2022/02/20 01:42:33;;;;;;;9.77;3.05;;;7.60;99.90;;;;;;2105053;28;20027;-71
2022/02/20 01:43:33;;;;;;;10.88;3.25;;;7.70;99.90;;;;;;2105164;28;20012;-71
2022/02/20 01:44:34;;;;;;;14.77;2.83;;;7.70;99.90;;;;;;2102189;28;20166;-71
2022/02/20 01:45:35;;;;;;;10.25;2.83;;;7.70;99.90;;;;;;2104515;28;20379;-71
2022/02/20 01:46:35;;;;;;;9.48;2.72;;;7.70;99.90;;;;;;2103787;28;20464;-71
2022/02/20 01:47:36;;;;;;;8.38;2.80;;;7.70;99.90;;;;;;2104811;28;20017;-71
2022/02/20 01:48:36;;;;;;;7.43;2.60;;;7.70;99.90;;;;;;2103615;28;20072;-71
2022/02/20 01:49:37;;;;;;;8.05;2.70;;;7.70;99.90;;;;;;2103400;28;20017;-71
2022/02/20 01:50:38;;;;;;;4.90;2.42;;;7.70;99.90;;;;;;2104958;28;20104;-71
2022/02/20 01:51:38;;;;;;;11.40;3.20;;;7.60;99.90;;;;;;2104146;28;20031;-72
2022/02/20 01:52:39;;;;;;;6.40;2.53;;;7.70;99.90;;;;;;2104043;28;20033;-71
2022/02/20 01:53:40;;;;;;;11.82;2.45;;;7.60;99.90;;;;;;2104570;28;20526;-71
2022/02/20 01:54:40;;;;;;;11.00;2.63;;;7.60;99.90;;;;;;2104773;28;20032;-71
2022/02/20 01:55:41;;;;;;;8.85;3.03;;;7.60;99.90;;;;;;2104316;28;20086;-71
2022/02/20 01:56:42;;;;;;;11.27;2.90;;;7.60;99.90;;;;;;2104484;28;20472;-71
2022/02/20 01:57:43;;;;;;;8.73;2.28;;;7.60;99.90;;;;;;2103721;28;20051;-71
2022/02/20 01:58:43;;;;;;;13.38;2.83;;;7.60;99.90;;;;;;2105418;28;20162;-71
2022/02/20 01:59:44;;;;;;;8.02;2.22;;;7.60;99.90;;;;;;2105504;28;20016;-71
2022/02/20 02:00:46;;;;;;;8.88;2.80;;;7.60;99.90;;;;;;2103512;28;20074;-71
2022/02/20 02:01:46;;;;;;;9.02;2.67;;;7.60;99.90;;;;;;2105653;28;20024;-72
2022/02/20 02:02:47;;;;;;;9.60;2.95;;;7.60;99.90;;;;;;2103749;28;20460;-71
2022/02/20 02:03:48;;;;;;;10.70;3.15;;;7.60;99.90;;;;;;2103771;28;20058;-71
2022/02/20 02:04:48;;;;;;;9.35;2.70;;;7.60;99.90;;;;;;2104425;28;20455;-71
2022/02/20 02:05:49;;;;;;;12.70;2.90;;;7.60;99.90;;;;;;2104938;28;20081;-71
2022/02/20 02:06:50;;;;;;;12.10;3.05;;;7.70;99.90;;;;;;2104565;28;20040;-71
2022/02/20 02:07:51;;;;;;;8.30;2.42;;;7.70;99.90;;;;;;2104458;28;20138;-71
2022/02/20 02:08:51;;;;;;;11.25;2.55;;;7.60;99.90;;;;;;2103865;28;20024;-71
2022/02/20 02:09:52;;;;;;;8.38;2.42;;;7.60;99.90;;;;;;2104790;28;20165;-71
2022/02/20 02:10:52;;;;;;;7.57;2.40;;;7.60;99.90;;;;;;2104850;28;20128;-71
2022/02/20 02:11:53;;;;;;;10.55;2.20;;;7.60;99.90;;;;;;2104408;28;20115;-71
2022/02/20 02:12:53;;;;;;;8.57;2.45;;;7.60;99.90;;;;;;2101699;28;20414;-71
2022/02/20 02:13:54;;;;;;;7.55;2.25;;;7.60;99.90;;;;;;2099941;28;20039;-71
2022/02/20 02:15:04;;;;;;;12.50;2.83;;;7.60;99.90;;;;;;2105382;28;20024;-71
2022/02/20 02:16:04;;;;;;;5.45;2.10;;;7.60;99.90;;;;;;2104837;28;20028;-71
2022/02/20 02:17:05;;;;;;;8.35;2.20;;;7.60;99.90;;;;;;2104704;28;20479;-71
2022/02/20 02:18:06;;;;;;;8.05;2.35;;;7.60;99.90;;;;;;2104256;28;20460;-71
2022/02/20 02:19:06;;;;;;;8.85;2.55;;;7.50;99.90;;;;;;2105317;28;20023;-71
2022/02/20 02:20:08;;;;;;;6.47;2.10;;;7.60;99.90;;;;;;2104246;28;20621;-71
2022/02/20 02:21:09;;;;;;;9.57;2.85;;;7.60;99.90;;;;;;2104375;28;20028;-71
2022/02/20 02:22:09;;;;;;;6.95;2.10;;;7.60;99.90;;;;;;2104326;28;20092;-71
2022/02/20 02:23:13;;;;;;;4.00;1.90;;;7.50;99.90;;;;;;2094689;28;20369;-71
2022/02/20 02:24:14;;;;;;;6.82;2.05;;;7.50;99.90;;;;;;2092912;28;20031;-71
2022/02/20 02:25:15;;;;;;;10.00;2.10;;;7.60;99.90;;;;;;2095804;28;20036;-71
2022/02/20 02:26:18;;;;;;;13.27;2.40;;;7.60;99.90;;;;;;2103608;28;20359;-71
2022/02/20 02:27:18;;;;;;;5.30;1.88;;;7.60;99.90;;;;;;2105089;28;20077;-71
2022/02/20 02:28:19;;;;;;;5.82;2.10;;;7.60;99.90;;;;;;2104772;28;20046;-71
2022/02/20 02:29:26;;;;;;;10.85;2.22;;;7.60;99.90;;;;;;2104671;28;20047;-71
2022/02/20 02:30:27;;;;;;;5.45;2.35;;;7.60;99.90;;;;;;2104394;28;20020;-71
2022/02/20 02:31:28;;;;;;;15.98;2.47;;;7.60;99.90;;;;;;2102674;28;20028;-71
2022/02/20 02:32:28;;;;;;;7.75;2.67;;;7.50;99.90;;;;;;2101685;28;20027;-71
2022/02/20 02:33:34;;;;;;;5.70;2.20;;;7.50;99.90;;;;;;2104298;28;20438;-71
2022/02/20 02:34:34;;;;;;;9.70;2.60;;;7.50;99.90;;;;;;2103794;28;20117;-71
2022/02/20 02:35:35;;;;;;;7.95;2.67;;;7.60;99.90;;;;;;2103568;28;20095;-71
2022/02/20 02:36:36;;;;;;;7.82;2.45;;;7.50;99.90;;;;;;2102964;28;20046;-70
2022/02/20 02:37:36;;;;;;;7.70;2.20;;;7.60;99.90;;;;;;2104923;28;20628;-71
2022/02/20 02:38:37;;;;;;;6.13;1.77;;;7.50;99.90;;;;;;2104107;28;20077;-71
2022/02/20 02:39:39;;;;;;;9.93;2.55;;;7.50;99.90;;;;;;2103068;28;20044;-71
2022/02/20 02:40:39;;;;;;;7.68;2.20;;;7.60;99.90;;;;;;2105326;28;20016;-71
2022/02/20 02:41:40;;;;;;;5.57;1.73;;;7.60;99.90;;;;;;2105271;28;20036;-71
2022/02/20 02:42:40;;;;;;;7.03;2.30;;;7.50;99.90;;;;;;2104339;28;20012;-71
2022/02/20 02:43:41;;;;;;;4.75;1.48;;;7.50;99.90;;;;;;2104510;28;20031;-71
2022/02/20 02:44:42;;;;;;;7.03;1.70;;;7.50;99.90;;;;;;2102967;28;20028;-71
2022/02/20 02:45:42;;;;;;;6.68;1.40;;;7.50;99.90;;;;;;2095444;28;20070;-71
2022/02/20 02:46:43;;;;;;;4.07;1.40;;;7.50;99.90;;;;;;2104475;28;20046;-71
2022/02/20 02:47:47;;;;;;;5.50;1.85;;;7.50;99.90;;;;;;2103550;28;20067;-71
2022/02/20 02:48:48;;;;;;;6.00;1.90;;;7.50;99.90;;;;;;2102887;28;20088;-71
2022/02/20 02:49:49;;;;;;;7.40;1.73;;;7.50;99.90;;;;;;2103013;28;20028;-72
2022/02/20 02:50:49;;;;;;;5.03;1.38;;;7.40;99.90;;;;;;2103822;28;20237;-72
2022/02/20 02:51:50;;;;;;;6.68;1.40;;;7.40;99.90;;;;;;2101507;28;20040;-71
2022/02/20 02:52:51;;;;;;;5.22;1.83;;;7.40;99.90;;;;;;2102619;28;20583;-71
2022/02/20 02:53:51;;;;;;;4.45;1.45;;;7.40;99.90;;;;;;2102908;28;20683;-70
2022/02/20 02:54:52;;;;;;;1.90;1.02;;;7.40;99.90;;;;;;2103173;28;20484;-71
2022/02/20 02:55:52;;;;;;;5.13;1.45;;;7.40;99.90;;;;;;2103131;28;20031;-71
2022/02/20 02:56:53;;;;;;;5.82;1.70;;;7.40;99.90;;;;;;2101884;28;20052;-71
2022/02/20 02:57:53;;;;;;;5.82;1.60;;;7.40;99.90;;;;;;2103847;28;20058;-71
2022/02/20 02:58:54;;;;;;;5.97;1.83;;;7.40;99.90;;;;;;2102362;28;20036;-71
2022/02/20 02:59:55;;;;;;;3.13;1.30;;;7.40;99.90;;;;;;2102872;28;20074;-71
2022/02/20 03:00:56;;;;;;;3.75;1.33;;;7.40;99.90;;;;;;2104189;28;20432;-71
2022/02/20 03:02:03;;;;;;;5.10;1.40;;;7.30;99.90;;;;;;2105075;28;20088;-71
2022/02/20 03:03:03;;;;;;;2.42;1.40;;;7.30;99.90;;;;;;2103539;28;20023;-71
2022/02/20 03:04:04;;;;;;;5.93;1.00;;;7.30;99.90;;;;;;2105048;28;20036;-71
2022/02/20 03:05:04;;;;;;;3.30;1.42;;;7.30;99.90;;;;;;2104578;28;20031;-71
2022/02/20 03:06:13;;;;;;;6.80;1.60;;;7.30;99.90;;;;;;2104607;28;20023;-71
2022/02/20 03:07:14;;;;;;;6.13;1.67;;;7.30;99.90;;;;;;2103444;28;20066;-71
2022/02/20 03:08:14;;;;;;;6.25;1.92;;;7.30;99.90;;;;;;2103079;28;20020;-71
2022/02/20 03:09:15;;;;;;;6.25;1.50;;;7.30;99.90;;;;;;2100318;28;20020;-71
2022/02/20 03:10:16;;;;;;;5.80;1.90;;;7.30;99.90;;;;;;2101619;28;20028;-71
2022/02/20 03:11:17;;;;;;;4.85;2.00;;;7.30;99.90;;;;;;2103440;28;20487;-71
2022/02/20 03:12:18;;;;;;;6.50;1.80;;;7.30;99.90;;;;;;2104963;28;20042;-71
2022/02/20 03:13:19;;;;;;;7.95;2.35;;;7.30;99.90;;;;;;2106576;28;20020;-71
2022/02/20 03:14:19;;;;;;;5.13;2.50;;;7.30;99.90;;;;;;2104722;28;20060;-71
2022/02/20 03:15:20;;;;;;;5.13;2.30;;;7.30;99.90;;;;;;2102962;28;20487;-70
2022/02/20 03:16:21;;;;;;;4.55;2.20;;;7.30;99.90;;;;;;2104799;28;20020;-71
2022/02/20 03:17:21;;;;;;;6.10;2.05;;;7.30;99.90;;;;;;2104966;28;20023;-71
2022/02/20 03:18:22;;;;;;;4.97;1.90;;;7.30;99.90;;;;;;2102999;28;20532;-71
2022/02/20 03:19:22;;;;;;;8.30;2.13;;;7.30;99.90;;;;;;2102855;28;20027;-71
2022/02/20 03:20:23;;;;;;;5.13;1.80;;;7.40;99.90;;;;;;2104199;28;20016;-71
2022/02/20 03:21:24;;;;;;;6.10;1.88;;;7.40;99.90;;;;;;2104541;28;20066;-71
2022/02/20 03:22:24;;;;;;;5.47;2.25;;;7.40;99.90;;;;;;2104886;28;20051;-71
2022/02/20 03:23:25;;;;;;;8.13;2.28;;;7.40;99.90;;;;;;2103038;28;20038;-71
2022/02/20 03:24:26;;;;;;;6.22;2.42;;;7.40;99.90;;;;;;2103280;28;20583;-71
2022/02/20 03:25:26;;;;;;;6.63;2.65;;;7.40;99.90;;;;;;2104810;28;20048;-71
2022/02/20 03:26:27;;;;;;;6.75;2.58;;;7.40;99.90;;;;;;2103094;28;20092;-71
2022/02/20 03:27:27;;;;;;;6.45;2.53;;;7.40;99.90;;;;;;2104426;28;20065;-71
2022/02/20 03:28:28;;;;;;;4.85;2.35;;;7.40;99.90;;;;;;2105196;28;20020;-71
2022/02/20 03:29:28;;;;;;;5.25;2.10;;;7.40;99.90;;;;;;2104473;28;20111;-71
2022/02/20 03:30:29;;;;;;;5.25;2.63;;;7.40;99.90;;;;;;2105053;28;20016;-71
2022/02/20 03:31:29;;;;;;;9.20;2.50;;;7.40;99.90;;;;;;2103438;28;20012;-71
2022/02/20 03:32:30;;;;;;;8.40;2.38;;;7.40;99.90;;;;;;2104682;28;20059;-71
2022/02/20 03:33:30;;;;;;;3.88;1.70;;;7.40;99.90;;;;;;2104616;28;20016;-71
2022/02/20 03:34:31;;;;;;;5.55;2.10;;;7.40;99.90;;;;;;2103994;28;20024;-71
2022/02/20 03:35:32;;;;;;;6.00;2.40;;;7.40;99.90;;;;;;2104350;28;20028;-71
2022/02/20 03:36:32;;;;;;;6.63;2.10;;;7.40;99.90;;;;;;2105008;28;20058;-71
2022/02/20 03:37:33;;;;;;;5.97;2.13;;;7.40;99.90;;;;;;2104351;28;20030;-71
2022/02/20 03:38:35;;;;;;;10.15;2.30;;;7.40;99.90;;;;;;2103775;28;20028;-71
2022/02/20 03:39:36;;;;;;;7.70;2.20;;;7.40;99.90;;;;;;2104322;28;20414;-71
2022/02/20 03:40:37;;;;;;;6.30;2.38;;;7.50;99.90;;;;;;2104308;28;20020;-71
2022/02/20 03:41:37;;;;;;;5.15;2.35;;;7.50;99.90;;;;;;2103796;28;20047;-71
2022/02/20 03:42:38;;;;;;;6.50;2.30;;;7.40;99.90;;;;;;2102867;28;20016;-72
2022/02/20 03:43:38;;;;;;;6.60;2.20;;;7.40;99.90;;;;;;2102955;28;20024;-71
2022/02/20 03:44:39;;;;;;;8.48;2.38;;;7.40;99.90;;;;;;2104902;28;20484;-71
2022/02/20 03:45:39;;;;;;;6.50;1.80;;;7.40;99.90;;;;;;2103974;28;20084;-71
2022/02/20 03:46:40;;;;;;;8.15;2.58;;;7.40;99.90;;;;;;2103286;28;20034;-71
2022/02/20 03:47:41;;;;;;;8.02;2.28;;;7.40;99.90;;;;;;2103480;28;20016;-71
2022/02/20 03:48:41;;;;;;;5.38;2.40;;;7.40;99.90;;;;;;2104932;28;20017;-71
2022/02/20 03:49:42;;;;;;;4.82;2.65;;;7.30;99.90;;;;;;2103848;28;20506;-71
2022/02/20 03:50:42;;;;;;;9.50;2.42;;;7.30;99.90;;;;;;2104986;28;20411;-71
2022/02/20 03:51:43;;;;;;;5.60;2.67;;;7.30;99.90;;;;;;2102897;28;20121;-71
2022/02/20 03:52:44;;;;;;;7.75;2.78;;;7.30;99.90;;;;;;2104813;28;20076;-71
2022/02/20 03:53:45;;;;;;;5.40;2.50;;;7.30;99.90;;;;;;2103476;28;20024;-71
2022/02/20 03:54:45;;;;;;;4.03;2.28;;;7.30;99.90;;;;;;2105051;28;20055;-71
2022/02/20 03:55:46;;;;;;;7.63;3.38;;;7.30;99.90;;;;;;2103129;28;20020;-71
2022/02/20 03:56:46;;;;;;;4.05;3.22;;;7.30;99.90;;;;;;2104301;28;20020;-71
2022/02/20 03:57:47;;;;;;;6.32;2.80;;;7.30;99.90;;;;;;2102944;28;20053;-71
2022/02/20 03:58:48;;;;;;;6.28;3.25;;;7.30;99.90;;;;;;2104898;28;20028;-71
2022/02/20 03:59:48;;;;;;;7.85;4.07;;;7.30;99.90;;;;;;2104408;28;20024;-71
2022/02/20 04:00:49;;;;;;;6.00;2.60;;;7.30;99.90;;;;;;2104701;28;20103;-71
2022/02/20 04:01:49;;;;;;;6.32;2.85;;;7.30;99.90;;;;;;2103930;28;20027;-71
2022/02/20 04:02:50;;;;;;;9.45;3.40;;;7.30;99.90;;;;;;2104522;28;20754;-71
2022/02/20 04:03:50;;;;;;;8.40;2.60;;;7.30;99.90;;;;;;2105074;28;20024;-71
2022/02/20 04:04:51;;;;;;;7.63;3.10;;;7.30;99.90;;;;;;2103265;28;20040;-71
2022/02/20 04:05:51;;;;;;;6.18;2.97;;;7.30;99.90;;;;;;2103963;28;20045;-71
2022/02/20 04:06:52;;;;;;;7.85;3.03;;;7.30;99.90;;;;;;2104666;28;20106;-71
2022/02/20 04:07:52;;;;;;;10.02;3.33;;;7.30;99.90;;;;;;2103818;28;20078;-71
2022/02/20 04:08:53;;;;;;;5.53;2.42;;;7.30;99.90;;;;;;2103897;28;20030;-71
2022/02/20 04:09:53;;;;;;;6.75;2.63;;;7.40;99.90;;;;;;2104823;28;20103;-71
2022/02/20 04:10:54;;;;;;;5.75;3.17;;;7.40;99.90;;;;;;2104434;28;20071;-71
2022/02/20 04:11:54;;;;;;;8.75;3.30;;;7.40;99.90;;;;;;2105447;28;20101;-71
2022/02/20 04:12:56;;;;;;;6.80;2.88;;;7.40;99.90;;;;;;2103906;28;20145;-71
2022/02/20 04:13:56;;;;;;;6.90;2.78;;;7.40;99.90;;;;;;2102311;28;20659;-71
2022/02/20 04:14:57;;;;;;;5.85;2.90;;;7.40;99.90;;;;;;2103591;28;20407;-71
2022/02/20 04:15:58;;;;;;;9.15;3.45;;;7.40;99.90;;;;;;2103283;28;20048;-71
2022/02/20 04:16:58;;;;;;;5.05;2.95;;;7.40;99.90;;;;;;2104118;28;20081;-71
2022/02/20 04:17:59;;;;;;;6.95;2.60;;;7.40;99.90;;;;;;2103217;28;20433;-71
2022/02/20 04:18:59;;;;;;;9.05;2.92;;;7.40;99.90;;;;;;2104732;28;20016;-71
2022/02/20 04:20:00;;;;;;;7.30;3.05;;;7.40;99.90;;;;;;2104689;28;20072;-71
2022/02/20 04:21:00;;;;;;;6.32;3.50;;;7.40;99.90;;;;;;2104144;28;20122;-71
2022/02/20 04:22:01;;;;;;;6.00;3.03;;;7.40;99.90;;;;;;2102920;28;20035;-71
2022/02/20 04:23:01;;;;;;;5.78;3.40;;;7.40;99.90;;;;;;2103120;28;20040;-71
2022/02/20 04:24:02;;;;;;;5.90;2.83;;;7.40;99.90;;;;;;2104254;28;20461;-71
2022/02/20 04:25:03;;;;;;;8.60;3.63;;;7.40;99.90;;;;;;2103421;28;20115;-71
2022/02/20 04:26:04;;;;;;;7.85;3.03;;;7.40;99.90;;;;;;2102766;28;20024;-71
2022/02/20 04:27:04;;;;;;;6.75;3.60;;;7.40;99.90;;;;;;2104039;28;20020;-71
2022/02/20 04:28:05;;;;;;;8.88;3.70;;;7.40;99.90;;;;;;2103904;28;20028;-71
2022/02/20 04:29:05;;;;;;;7.00;3.25;;;7.40;99.90;;;;;;2102260;28;20087;-71
2022/02/20 04:30:07;;;;;;;7.95;3.25;;;7.50;99.90;;;;;;2101348;28;20026;-71
2022/02/20 04:31:08;;;;;;;8.95;3.33;;;7.50;99.90;;;;;;2103825;28;20115;-71
2022/02/20 04:32:08;;;;;;;11.38;4.25;;;7.50;99.90;;;;;;2103877;28;20020;-71
2022/02/20 04:33:09;;;;;;;6.13;2.85;;;7.50;99.90;;;;;;2102967;28;20099;-71
2022/02/20 04:34:09;;;;;;;8.25;3.00;;;7.50;99.90;;;;;;2103042;28;20039;-71
2022/02/20 04:35:10;;;;;;;6.13;2.97;;;7.50;99.90;;;;;;2103276;28;20708;-71
2022/02/20 04:36:11;;;;;;;8.25;2.72;;;7.50;99.90;;;;;;2103795;28;20016;-71
2022/02/20 04:37:12;;;;;;;8.88;2.80;;;7.50;99.90;;;;;;2103500;28;20027;-71
2022/02/20 04:38:13;;;;;;;7.53;3.08;;;7.50;99.90;;;;;;2103984;28;20027;-71
2022/02/20 04:39:13;;;;;;;6.80;2.47;;;7.50;99.90;;;;;;2104549;28;20020;-71
2022/02/20 04:40:14;;;;;;;9.63;2.90;;;7.50;99.90;;;;;;2104459;28;20105;-71
2022/02/20 04:41:14;;;;;;;5.65;2.50;;;7.50;99.90;;;;;;2103448;28;20020;-71
2022/02/20 04:42:15;;;;;;;7.40;2.58;;;7.50;99.90;;;;;;2102847;28;20383;-71
2022/02/20 04:43:15;;;;;;;7.78;2.50;;;7.50;99.90;;;;;;2102821;28;20095;-71
2022/02/20 04:44:16;;;;;;;4.88;2.10;;;7.50;99.90;;;;;;2104298;28;20640;-71
2022/02/20 04:45:17;;;;;;;7.75;2.60;;;7.50;99.90;;;;;;2102185;28;20028;-71
2022/02/20 04:46:18;;;;;;;9.35;2.90;;;7.50;99.90;;;;;;2103205;28;20025;-71
2022/02/20 04:47:18;;;;;;;5.78;2.28;;;7.40;99.90;;;;;;2104707;28;20024;-71
2022/02/20 04:48:19;;;;;;;4.45;2.10;;;7.40;99.90;;;;;;2104382;28;20032;-71
2022/02/20 04:49:19;;;;;;;9.18;2.60;;;7.40;99.90;;;;;;2104242;28;20024;-71
2022/02/20 04:50:20;;;;;;;11.25;2.70;;;7.40;99.90;;;;;;2103907;28;20032;-71
2022/02/20 04:51:20;;;;;;;4.07;2.13;;;7.40;99.90;;;;;;2103211;28;20057;-71
2022/02/20 04:52:21;;;;;;;6.60;2.10;;;7.40;99.90;;;;;;2102054;28;20145;-71
2022/02/20 04:53:21;;;;;;;9.73;2.55;;;7.40;99.90;;;;;;2104619;28;20464;-71
2022/02/20 04:54:22;;;;;;;7.93;1.92;;;7.40;99.90;;;;;;2101628;28;20028;-71
2022/02/20 04:55:22;;;;;;;6.55;2.22;;;7.40;99.90;;;;;;2103618;28;20019;-71
2022/02/20 04:56:23;;;;;;;7.85;2.35;;;7.40;99.90;;;;;;2104029;28;20069;-71
2022/02/20 04:57:23;;;;;;;4.93;2.03;;;7.40;99.90;;;;;;2095474;28;20038;-71
2022/02/20 04:58:24;;;;;;;6.80;2.10;;;7.40;99.90;;;;;;2095068;28;20032;-71
2022/02/20 04:59:25;;;;;;;8.15;2.47;;;7.30;99.90;;;;;;2104529;28;20020;-71
2022/02/20 05:00:25;;;;;;;8.07;2.35;;;7.40;99.90;;;;;;2102814;28;20020;-71
2022/02/20 05:01:26;;;;;;;5.72;2.38;;;7.40;99.90;;;;;;2104411;28;20032;-71
2022/02/20 05:02:26;;;;;;;10.40;2.13;;;7.40;99.90;;;;;;2102580;28;20065;-71
2022/02/20 05:03:27;;;;;;;14.10;2.53;;;7.40;99.90;;;;;;2104099;28;20418;-71
2022/02/20 05:04:28;;;;;;;5.45;2.10;;;7.40;99.90;;;;;;2103161;28;20016;-71
2022/02/20 05:05:28;;;;;;;7.00;2.80;;;7.40;99.90;;;;;;2102941;28;20083;-71
2022/02/20 05:06:29;;;;;;;8.57;2.88;;;7.40;99.90;;;;;;2104458;28;20099;-71
2022/02/20 05:07:29;;;;;;;5.70;2.30;;;7.40;99.90;;;;;;2103604;28;20285;-71
2022/02/20 05:08:30;;;;;;;5.03;2.38;;;7.40;99.90;;;;;;2104365;28;20389;-71
2022/02/20 05:09:30;;;;;;;6.82;2.53;;;7.40;99.90;;;;;;2104310;28;20046;-71
2022/02/20 05:10:31;;;;;;;7.68;3.00;;;7.40;99.90;;;;;;2104334;28;20744;-71
2022/02/20 05:11:32;;;;;;;7.63;2.83;;;7.40;99.90;;;;;;2103592;28;20032;-71
2022/02/20 05:12:32;;;;;;;6.70;3.08;;;7.40;99.90;;;;;;2104341;28;20050;-71
2022/02/20 05:13:33;;;;;;;8.75;3.05;;;7.40;99.90;;;;;;2104125;28;20024;-71
2022/02/20 05:14:33;;;;;;;7.28;2.92;;;7.40;99.90;;;;;;2104323;28;20108;-71
2022/02/20 05:15:34;;;;;;;6.07;2.65;;;7.40;99.90;;;;;;2103157;28;20023;-71
2022/02/20 05:16:35;;;;;;;9.05;2.83;;;7.40;99.90;;;;;;2104343;28;20045;-71
2022/02/20 05:17:38;;;;;;;5.97;2.78;;;7.40;99.90;;;;;;2104208;28;20734;-71
2022/02/20 05:18:39;;;;;;;8.52;3.00;;;7.40;99.90;;;;;;2100667;28;20020;-71
2022/02/20 05:19:39;;;;;;;7.80;2.63;;;7.40;99.90;;;;;;2103806;28;20838;-71